Time;durP1;ratioP1;P1;durP2;ratioP2;P2;SDS_P1;SDS_P2;PMS_P1;PMS_P2;Temp;Humidity;BMP_temperature;BMP_pressure;BME280_temperature;BME280_humidity;BME280_pressure;Samples;Min_cycle;Max_cycle;Signal;HPM_P1;HPM_P2
2022/07/26 00:01:44;;;;;;;5.45;4.92;;;;;;;19.41;66.25;99348.75;1735257;81;21801;-67
2022/07/26 00:04:11;;;;;;;6.65;4.75;;;;;;;19.43;66.22;99350.80;1724968;81;20975;-67
2022/07/26 00:06:38;;;;;;;7.70;4.58;;;;;;;19.43;66.22;99344.63;1743224;81;20979;-66
2022/07/26 00:09:06;;;;;;;5.50;4.83;;;;;;;19.40;66.36;99351.53;1726579;81;21507;-66
2022/07/26 00:11:32;;;;;;;6.35;4.42;;;;;;;19.34;66.51;99350.73;1729675;81;21575;-67
2022/07/26 00:14:01;;;;;;;6.90;5.20;;;;;;;19.29;66.70;99351.13;1743167;81;21761;-67
2022/07/26 00:16:29;;;;;;;5.50;4.40;;;;;;;19.30;66.66;99344.80;1742406;81;21523;-67
2022/07/26 00:18:56;;;;;;;;;;;;;;;19.28;66.66;99342.76;1716513;81;21503;-66
2022/07/26 00:21:22;;;;;;;6.33;4.30;;;;;;;19.25;67.03;99341.70;1726412;81;20449;-66
2022/07/26 00:23:49;;;;;;;4.83;4.35;;;;;;;19.22;66.76;99337.45;1729766;81;21500;-66
2022/07/26 00:26:16;;;;;;;4.78;4.28;;;;;;;19.16;66.82;99341.97;1739087;81;21866;-67
2022/07/26 00:28:43;;;;;;;7.83;3.80;;;;;;;19.11;67.02;99339.33;1733023;80;21523;-67
2022/07/26 00:31:11;;;;;;;6.17;4.10;;;;;;;19.10;66.95;99342.95;1733017;81;21595;-67
2022/07/26 00:33:38;;;;;;;5.35;4.08;;;;;;;19.07;67.03;99341.41;1738555;80;21437;-68
2022/07/26 00:36:06;;;;;;;4.55;4.17;;;;;;;19.04;67.24;99338.52;1729749;81;21572;-67
2022/07/26 00:38:33;;;;;;;5.45;3.95;;;;;;;18.99;67.21;99336.71;1747117;81;21809;-67
2022/07/26 00:40:59;;;;;;;5.65;3.98;;;;;;;18.93;67.55;99338.55;1744620;81;21444;-68
2022/07/26 00:43:27;;;;;;;5.08;4.30;;;;;;;18.85;67.74;99342.31;1738867;80;20959;-68
2022/07/26 00:45:56;;;;;;;5.22;3.67;;;;;;;18.91;67.59;99331.64;1746922;81;21058;-68
2022/07/26 00:48:22;;;;;;;5.08;4.00;;;;;;;18.86;67.65;99332.88;1737258;81;20999;-66
2022/07/26 00:50:52;;;;;;;6.15;3.67;;;;;;;18.80;67.85;99336.05;1739230;80;21740;-69
2022/07/26 00:53:20;;;;;;;6.37;3.58;;;;;;;18.79;68.05;99337.47;1720738;81;21575;-67
2022/07/26 00:55:48;;;;;;;5.90;3.83;;;;;;;18.70;68.29;99339.55;1730064;81;21649;-67
2022/07/26 00:58:16;;;;;;;;;;;;;;;18.72;68.11;99331.78;1738490;81;21488;-68
2022/07/26 01:00:43;;;;;;;13.78;4.05;;;;;;;18.70;68.26;99338.22;1733579;81;20477;-67
2022/07/26 01:03:10;;;;;;;4.67;3.47;;;;;;;18.64;68.13;99336.41;1734692;81;21810;-67
2022/07/26 01:05:37;;;;;;;4.23;3.87;;;;;;;18.61;68.17;99330.48;1735342;81;21472;-67
2022/07/26 01:08:04;;;;;;;6.70;4.40;;;;;;;18.62;68.14;99326.37;1736400;80;21512;-67
2022/07/26 01:10:31;;;;;;;6.23;3.90;;;;;;;18.60;68.17;99322.15;1738676;80;20968;-67
2022/07/26 01:12:59;;;;;;;4.15;3.75;;;;;;;18.58;68.15;99322.27;1748403;81;21578;-71
2022/07/26 01:15:27;;;;;;;6.17;3.58;;;;;;;18.56;68.18;99321.55;1734816;81;22073;-67
2022/07/26 01:17:54;;;;;;;3.85;3.50;;;;;;;18.52;68.37;99318.78;1739876;81;20971;-66
2022/07/26 01:20:23;;;;;;;4.72;3.87;;;;;;;18.48;68.79;99318.67;1732725;81;21499;-67
2022/07/26 01:22:49;;;;;;;;;;;;;;;18.48;68.97;99323.50;1738769;80;21632;-67
2022/07/26 01:25:16;;;;;;;5.87;3.75;;;;;;;18.45;69.35;99324.23;1747172;81;20162;-67
2022/07/26 01:27:43;;;;;;;4.53;4.12;;;;;;;18.42;69.32;99327.13;1739217;80;21543;-68
2022/07/26 01:30:11;;;;;;;6.35;3.80;;;;;;;18.42;69.36;99332.45;1738981;81;21480;-67
2022/07/26 01:35:18;;;;;;;6.75;3.95;;;;;;;17.71;72.44;99347.30;1781795;78;23194;-65
2022/07/26 01:37:44;;;;;;;4.62;3.40;;;;;;;18.02;71.24;99346.27;1761789;80;21423;-65
2022/07/26 01:40:13;;;;;;;4.85;3.70;;;;;;;17.99;71.34;99342.51;1774875;80;21795;-65
2022/07/26 01:42:40;;;;;;;4.90;3.50;;;;;;;17.99;71.42;99341.17;1761919;80;21091;-66
2022/07/26 01:45:09;;;;;;;7.92;4.45;;;;;;;17.98;71.48;99332.85;1754928;80;21542;-65
2022/07/26 01:47:36;;;;;;;3.87;3.58;;;;;;;17.97;71.72;99336.47;1752098;80;21526;-66
2022/07/26 01:50:05;;;;;;;5.10;3.75;;;;;;;17.98;71.76;99332.85;1770582;80;21557;-66
2022/07/26 01:52:34;;;;;;;4.47;3.67;;;;;;;18.01;71.84;99342.77;1753591;80;21554;-66
2022/07/26 01:55:01;;;;;;;5.25;3.40;;;;;;;18.02;71.74;99342.28;1764319;80;21617;-66
2022/07/26 01:57:27;;;;;;;3.60;3.30;;;;;;;18.03;71.56;99338.67;1761381;79;21476;-66
2022/07/26 01:59:54;;;;;;;4.67;3.90;;;;;;;18.04;71.56;99337.69;1771840;79;21479;-66
2022/07/26 02:02:22;;;;;;;4.50;3.60;;;;;;;18.04;71.52;99329.21;1756899;80;21499;-66
2022/07/26 02:04:58;;;;;;;4.42;3.20;;;;;;;18.02;71.37;99333.81;1774388;79;22216;-66
2022/07/26 02:07:29;;;;;;;6.20;3.12;;;;;;;17.99;71.59;99330.08;1760041;80;20991;-67
2022/07/26 02:09:56;;;;;;;5.08;3.27;;;;;;;18.02;71.37;99332.48;1771205;79;21439;-66
2022/07/26 02:12:23;;;;;;;6.42;3.30;;;;;;;18.02;71.18;99328.98;1770375;79;21476;-66
2022/07/26 02:14:49;;;;;;;4.00;3.02;;;;;;;17.99;71.12;99327.88;1753288;80;21570;-66
2022/07/26 02:17:16;;;;;;;5.62;3.40;;;;;;;17.99;71.10;99331.87;1772896;79;21961;-66
2022/07/26 02:19:43;;;;;;;4.72;2.80;;;;;;;17.98;70.86;99323.05;1755253;79;21439;-66
2022/07/26 02:22:10;;;;;;;8.40;2.92;;;;;;;17.97;70.89;99325.37;1763839;79;21437;-66
2022/07/26 02:24:37;;;;;;;3.47;3.17;;;;;;;17.93;70.74;99323.89;1772637;79;21520;-66
2022/07/26 02:27:03;;;;;;;4.42;2.98;;;;;;;17.93;70.72;99325.22;1762796;79;22607;-66
2022/07/26 02:29:30;;;;;;;4.62;3.10;;;;;;;17.90;70.91;99331.63;1772207;79;21527;-66
2022/07/26 02:31:57;;;;;;;3.15;2.58;;;;;;;17.89;70.90;99323.77;1769707;79;21428;-66
2022/07/26 02:34:23;;;;;;;5.65;3.00;;;;;;;17.88;70.84;99328.25;1722895;81;21485;-66
2022/07/26 02:36:50;;;;;;;3.12;2.80;;;;;;;17.86;70.79;99327.53;1749148;80;21526;-66
2022/07/26 02:39:16;;;;;;;4.12;2.87;;;;;;;17.84;71.06;99330.80;1753832;80;21462;-66
2022/07/26 02:41:43;;;;;;;2.85;2.62;;;;;;;17.86;71.20;99334.67;1757811;80;22178;-67
2022/07/26 02:44:10;;;;;;;3.58;3.00;;;;;;;17.85;71.39;99338.28;1761279;80;21490;-66
2022/07/26 02:46:36;;;;;;;4.65;2.72;;;;;;;17.86;71.46;99339.50;1747756;80;21710;-66
2022/07/26 02:49:03;;;;;;;2.72;2.52;;;;;;;17.89;71.37;99333.95;1764838;80;21558;-66
2022/07/26 02:51:30;;;;;;;2.62;2.42;;;;;;;17.90;71.54;99338.28;1749213;80;21509;-66
2022/07/26 02:53:56;;;;;;;3.17;2.87;;;;;;;17.95;71.43;99333.95;1751826;80;21559;-66
2022/07/26 02:56:23;;;;;;;5.12;2.70;;;;;;;17.98;71.47;99332.85;1763957;80;21492;-66
2022/07/26 02:58:49;;;;;;;3.27;2.72;;;;;;;17.99;71.43;99331.87;1753835;80;21541;-67
2022/07/26 03:01:16;;;;;;;3.72;2.62;;;;;;;17.99;71.26;99331.41;1755943;80;21463;-66
2022/07/26 03:03:42;;;;;;;4.03;2.67;;;;;;;17.96;71.25;99326.81;1759171;80;20935;-67
2022/07/26 03:06:09;;;;;;;3.75;2.70;;;;;;;17.99;71.39;99328.75;1753684;80;21792;-67
2022/07/26 03:08:36;;;;;;;4.55;2.60;;;;;;;18.02;71.23;99329.81;1755455;80;21447;-66
2022/07/26 03:11:04;;;;;;;2.87;2.55;;;;;;;18.03;71.21;99328.86;1745947;80;21530;-68
2022/07/26 03:13:30;;;;;;;;;;;;;;;18.04;71.24;99329.70;1768891;80;21495;-67
2022/07/26 03:15:56;;;;;;;4.40;2.60;;;;;;;18.07;71.40;99333.47;1764224;80;20453;-68
2022/07/26 03:18:23;;;;;;;4.50;3.20;;;;;;;18.05;71.26;99334.91;1748915;80;22115;-67
2022/07/26 03:20:50;;;;;;;4.28;2.90;;;;;;;18.07;71.28;99333.47;1757537;80;21033;-67
2022/07/26 03:23:17;;;;;;;3.75;2.98;;;;;;;18.08;71.24;99319.17;1760235;80;21495;-67
2022/07/26 03:25:44;;;;;;;3.00;2.70;;;;;;;18.08;71.26;99319.17;1753968;80;21042;-66
2022/07/26 03:28:11;;;;;;;4.35;2.52;;;;;;;18.12;71.38;99323.31;1756151;80;21687;-67
2022/07/26 03:30:38;;;;;;;3.10;2.60;;;;;;;18.13;71.49;99327.65;1757727;80;21804;-67
2022/07/26 03:33:04;;;;;;;4.67;2.72;;;;;;;18.23;71.34;99326.43;1756346;80;21413;-67
2022/07/26 03:35:31;;;;;;;4.30;2.80;;;;;;;18.29;71.25;99323.30;1760765;80;21562;-67
2022/07/26 03:37:58;;;;;;;3.12;2.45;;;;;;;18.32;71.11;99325.70;1767017;80;21566;-68
2022/07/26 03:40:25;;;;;;;4.05;2.65;;;;;;;18.42;70.88;99320.48;1748609;80;21540;-67
2022/07/26 03:42:51;;;;;;;4.75;2.70;;;;;;;18.52;70.73;99323.27;1752649;80;21762;-68
2022/07/26 03:45:18;;;;;;;3.60;2.85;;;;;;;18.59;70.53;99319.98;1759250;80;21603;-67
2022/07/26 03:47:45;;;;;;;2.50;2.30;;;;;;;18.65;70.49;99323.47;1751922;80;21514;-67
2022/07/26 03:50:12;;;;;;;2.77;2.58;;;;;;;18.74;70.05;99321.88;1756803;80;21510;-67
2022/07/26 03:52:39;;;;;;;2.57;2.37;;;;;;;18.78;69.91;99327.31;1762686;80;21424;-66
2022/07/26 03:57:52;;;;;;;3.35;2.55;;;;;;;18.98;69.49;99318.19;1765215;80;21442;-67
2022/07/26 04:00:19;;;;;;;2.90;2.10;;;;;;;19.02;69.52;99319.16;1765670;80;21726;-67
2022/07/26 04:02:45;;;;;;;3.15;2.83;;;;;;;19.07;69.38;99326.75;1750932;80;21613;-68
2022/07/26 04:05:12;;;;;;;3.70;2.60;;;;;;;19.13;69.34;99323.56;1758603;80;21500;-67
2022/07/26 04:07:45;;;;;;;4.25;3.02;;;;;;;19.20;69.13;99322.58;1760144;80;22037;-67
2022/07/26 04:10:14;;;;;;;3.40;3.02;;;;;;;19.28;68.38;99320.60;1741907;80;21507;-69
2022/07/26 04:12:41;;;;;;;2.80;2.50;;;;;;;19.32;68.46;99322.86;1763273;80;21564;-68
2022/07/26 04:15:09;;;;;;;6.12;3.17;;;;;;;19.37;68.34;99326.48;1746323;80;21556;-68
2022/07/26 04:17:39;;;;;;;;;;;;;;;19.44;68.01;99331.17;1754834;80;21459;-67
2022/07/26 04:20:07;;;;;;;8.60;2.95;;;;;;;19.54;67.70;99329.06;1751519;80;21103;-69
2022/07/26 04:22:35;;;;;;;2.92;2.67;;;;;;;19.59;67.15;99327.69;1769200;80;21404;-64
2022/07/26 04:25:01;;;;;;;6.07;2.90;;;;;;;19.62;67.00;99327.41;1750225;80;22106;-64
2022/07/26 04:27:28;;;;;;;3.00;2.80;;;;;;;19.69;66.77;99327.74;1749390;80;20972;-68
2022/07/26 04:29:55;;;;;;;4.00;2.83;;;;;;;19.73;66.58;99325.20;1762522;80;21434;-69
2022/07/26 04:32:21;;;;;;;2.92;2.62;;;;;;;19.82;66.94;99331.57;1740951;80;21847;-69
2022/07/26 04:34:48;;;;;;;2.60;2.40;;;;;;;19.93;66.70;99330.62;1763550;79;21530;-66
2022/07/26 04:37:14;;;;;;;5.25;2.55;;;;;;;20.01;66.55;99332.16;1757878;79;21522;-66
2022/07/26 04:39:42;;;;;;;4.12;2.75;;;;;;;20.12;65.93;99329.39;1772087;79;21476;-66
2022/07/26 04:42:08;;;;;;;4.53;2.90;;;;;;;20.19;65.63;99332.35;1754186;79;21463;-66
2022/07/26 04:44:35;;;;;;;6.93;2.80;;;;;;;20.27;65.67;99334.34;1753536;79;22117;-66
2022/07/26 04:47:02;;;;;;;6.00;2.90;;;;;;;20.36;65.30;99331.73;1759627;80;21486;-66
2022/07/26 04:49:28;;;;;;;6.83;2.42;;;;;;;20.40;64.82;99333.14;1756220;80;21422;-66
2022/07/26 04:51:55;;;;;;;3.75;2.60;;;;;;;20.47;65.38;99334.77;1759508;80;21459;-66
2022/07/26 04:54:22;;;;;;;3.47;2.93;;;;;;;20.52;64.78;99331.20;1749616;80;21581;-66
2022/07/26 04:56:49;;;;;;;3.33;2.60;;;;;;;20.59;64.62;99333.69;1751409;79;21840;-65
2022/07/26 04:59:16;;;;;;;5.65;2.67;;;;;;;20.67;64.37;99333.52;1762767;79;21613;-67
2022/07/26 05:01:43;;;;;;;3.15;2.70;;;;;;;20.74;64.24;99336.00;1764683;80;21475;-67
2022/07/26 05:04:10;;;;;;;3.93;2.40;;;;;;;20.82;63.90;99332.13;1759895;80;21514;-68
2022/07/26 05:06:36;;;;;;;3.75;3.10;;;;;;;20.93;63.65;99330.67;1758169;79;21438;-66
2022/07/26 05:09:03;;;;;;;3.60;2.87;;;;;;;20.99;63.39;99327.43;1758261;79;21555;-67
2022/07/26 05:11:30;;;;;;;5.28;3.20;;;;;;;21.04;63.17;99328.83;1764616;79;21086;-70
2022/07/26 05:13:56;;;;;;;8.58;3.20;;;;;;;21.10;63.49;99337.14;1767345;79;21526;-69
2022/07/26 05:16:23;;;;;;;6.33;3.47;;;;;;;21.18;62.94;99331.93;1754349;79;21467;-69
2022/07/26 05:18:49;;;;;;;3.92;3.12;;;;;;;21.28;62.76;99331.92;1772780;79;21543;-69
2022/07/26 05:21:17;;;;;;;4.28;3.30;;;;;;;21.38;62.47;99331.44;1768110;79;22058;-69
2022/07/26 05:23:44;;;;;;;4.22;3.02;;;;;;;21.46;62.48;99334.77;1758666;80;27207;-71
2022/07/26 05:26:11;;;;;;;6.83;3.25;;;;;;;21.57;62.39;99330.59;1757765;79;21505;-71
2022/07/26 05:28:38;;;;;;;5.58;3.20;;;;;;;21.69;61.74;99329.09;1760205;80;21472;-70
2022/07/26 05:31:05;;;;;;;4.42;3.02;;;;;;;21.77;61.53;99330.06;1757255;80;21447;-71
2022/07/26 05:33:32;;;;;;;3.90;3.47;;;;;;;21.93;61.17;99329.94;1762492;79;21895;-72
2022/07/26 05:35:58;;;;;;;5.60;2.95;;;;;;;22.02;60.83;99328.20;1753183;79;21475;-72
2022/07/26 05:38:24;;;;;;;5.42;3.70;;;;;;;22.11;60.75;99325.52;1756527;80;21032;-71
2022/07/26 05:40:51;;;;;;;4.17;3.77;;;;;;;22.18;59.51;99323.57;1762519;80;21627;-71
2022/07/26 05:43:18;;;;;;;5.90;3.80;;;;;;;22.23;59.90;99323.47;1752839;80;20943;-71
2022/07/26 05:45:44;;;;;;;6.07;3.87;;;;;;;22.23;59.90;99323.47;1760723;80;22231;-71
2022/07/26 05:48:11;;;;;;;5.50;4.20;;;;;;;22.29;59.64;99320.73;1761394;80;21546;-71
2022/07/26 05:50:37;;;;;;;5.12;3.85;;;;;;;22.37;59.29;99321.32;1739877;80;21496;-70
2022/07/26 05:53:04;;;;;;;4.55;4.05;;;;;;;22.60;59.12;99323.09;1751637;80;21500;-71
2022/07/26 05:55:30;;;;;;;7.67;4.15;;;;;;;22.60;59.12;99323.09;1754035;80;21452;-71
2022/07/26 05:57:57;;;;;;;4.28;3.50;;;;;;;22.71;58.90;99321.53;1748718;80;22000;-70
2022/07/26 06:00:25;;;;;;;6.17;3.60;;;;;;;22.71;58.90;99321.53;1751415;80;21592;-68
2022/07/26 06:02:51;;;;;;;5.33;4.05;;;;;;;22.77;58.02;99316.90;1746694;80;21603;-70
2022/07/26 06:05:18;;;;;;;3.72;3.12;;;;;;;22.80;58.23;99314.44;1751222;80;21498;-71
2022/07/26 06:07:44;;;;;;;3.20;2.83;;;;;;;22.83;58.29;99306.94;1752426;80;21531;-72
2022/07/26 06:10:11;;;;;;;3.80;2.58;;;;;;;22.97;58.18;99310.91;1746483;80;21512;-71
2022/07/26 06:12:37;;;;;;;2.75;2.50;;;;;;;23.14;57.99;99302.55;1761560;79;21515;-72
2022/07/26 06:15:05;;;;;;;3.25;2.40;;;;;;;23.26;57.61;99300.45;1757553;80;21498;-72
2022/07/26 06:17:31;;;;;;;;;;;;;;;23.36;56.89;99303.91;1757025;80;21505;-70
2022/07/26 06:19:58;;;;;;;4.62;2.30;;;;;;;23.48;56.33;99296.43;1752631;80;20425;-71
2022/07/26 06:22:25;;;;;;;4.77;2.37;;;;;;;23.52;55.96;99296.45;1759285;80;21961;-71
2022/07/26 06:24:51;;;;;;;7.45;2.27;;;;;;;23.56;55.66;99283.57;1760816;80;22179;-72
2022/07/26 06:27:18;;;;;;;4.85;2.42;;;;;;;23.63;55.78;99287.31;1758461;80;21448;-72
2022/07/26 06:29:47;;;;;;;3.67;2.50;;;;;;;23.70;55.37;99277.13;1753267;80;21420;-71
2022/07/26 06:32:13;;;;;;;2.92;2.50;;;;;;;23.75;55.38;99278.48;1760462;80;21503;-71
2022/07/26 06:34:40;;;;;;;3.87;2.50;;;;;;;23.85;55.07;99283.28;1761745;80;22019;-71
2022/07/26 06:37:06;;;;;;;4.35;2.50;;;;;;;24.01;54.66;99278.48;1736048;80;20950;-72
2022/07/26 06:39:33;;;;;;;3.30;2.42;;;;;;;24.05;53.69;99274.47;1750369;80;21418;-72
2022/07/26 06:41:59;;;;;;;2.93;2.60;;;;;;;24.05;53.69;99274.47;1732942;80;21455;-73
2022/07/26 06:44:28;;;;;;;4.97;2.30;;;;;;;24.21;53.62;99260.28;1740321;80;21580;-73
2022/07/26 06:46:54;;;;;;;4.47;2.40;;;;;;;24.21;53.62;99260.28;1736450;80;21426;-74
2022/07/26 06:49:21;;;;;;;3.08;2.50;;;;;;;24.28;53.58;99267.52;1743866;80;21057;-73
2022/07/26 06:51:47;;;;;;;4.03;2.98;;;;;;;24.36;53.67;99263.18;1733601;80;21472;-73
2022/07/26 06:54:14;;;;;;;2.95;2.60;;;;;;;24.49;53.42;99261.69;1734919;80;21042;-72
2022/07/26 06:56:40;;;;;;;4.00;2.83;;;;;;;24.63;52.43;99263.43;1741963;82;21594;-73
2022/07/26 06:59:07;;;;;;;3.15;2.58;;;;;;;24.62;51.91;99252.33;1739552;80;21877;-72
2022/07/26 07:01:34;;;;;;;5.30;3.52;;;;;;;24.70;52.57;99248.84;1741679;80;21526;-70
2022/07/26 07:04:00;;;;;;;6.75;2.95;;;;;;;24.82;52.50;99250.17;1740825;80;21614;-69
2022/07/26 07:06:27;;;;;;;9.95;3.20;;;;;;;24.92;52.02;99254.91;1737515;80;21660;-70
2022/07/26 07:08:54;;;;;;;4.25;3.17;;;;;;;25.00;51.85;99251.38;1739189;80;21605;-69
2022/07/26 07:11:21;;;;;;;5.65;2.83;;;;;;;25.04;51.88;99250.02;1730408;80;22218;-71
2022/07/26 07:13:47;;;;;;;4.83;2.45;;;;;;;25.13;51.17;99246.80;1737807;80;21053;-69
2022/07/26 07:16:14;;;;;;;4.00;2.47;;;;;;;25.25;51.47;99245.50;1737604;80;21029;-72
2022/07/26 07:18:40;;;;;;;6.10;3.00;;;;;;;25.41;50.98;99246.83;1708794;82;21501;-72
2022/07/26 07:21:08;;;;;;;4.80;2.85;;;;;;;25.52;49.86;99242.91;1751078;80;21152;-70
2022/07/26 07:23:35;;;;;;;4.00;2.62;;;;;;;25.52;49.86;99242.91;1737085;80;21577;-71
2022/07/26 07:26:01;;;;;;;4.42;2.37;;;;;;;25.57;49.50;99233.83;1741239;80;21554;-72
2022/07/26 07:28:28;;;;;;;3.95;2.45;;;;;;;25.57;48.96;99231.66;1739606;80;21560;-71
2022/07/26 07:30:57;;;;;;;2.62;2.42;;;;;;;25.55;48.89;99230.47;1697507;82;21479;-70
2022/07/26 07:33:23;;;;;;;3.30;2.90;;;;;;;25.57;49.34;99233.00;1740209;80;21512;-69
2022/07/26 07:35:51;;;;;;;3.52;2.60;;;;;;;25.60;49.32;99228.11;1744254;80;21839;-70
2022/07/26 07:38:17;;;;;;;;;;;;;;;25.62;49.22;99227.43;1762135;80;21672;-67
2022/07/26 07:40:44;;;;;;;5.08;2.83;;;;;;;25.70;48.76;99229.25;1757448;80;20137;-68
2022/07/26 07:43:12;;;;;;;4.65;2.98;;;;;;;25.80;47.58;99219.11;1751572;80;20967;-70
2022/07/26 07:45:38;;;;;;;3.80;2.55;;;;;;;25.75;47.92;99213.91;1761464;80;21553;-66
2022/07/26 07:48:05;;;;;;;4.28;2.60;;;;;;;25.86;47.99;99222.95;1759000;80;21530;-68
2022/07/26 07:50:32;;;;;;;4.33;2.80;;;;;;;25.92;47.58;99225.48;1749659;80;21091;-69
2022/07/26 07:52:59;;;;;;;3.50;2.62;;;;;;;25.85;47.17;99229.38;1748226;80;21459;-68
2022/07/26 07:55:26;;;;;;;5.10;2.70;;;;;;;25.91;47.76;99231.36;1765080;80;21551;-67
2022/07/26 07:57:53;;;;;;;5.03;2.50;;;;;;;25.97;48.25;99236.07;1755099;80;21942;-69
2022/07/26 08:00:20;;;;;;;5.47;2.50;;;;;;;26.07;47.88;99237.72;1762094;80;21865;-68
2022/07/26 08:02:46;;;;;;;5.60;3.05;;;;;;;26.16;47.25;99229.93;1765629;80;21485;-68
2022/07/26 08:05:13;;;;;;;2.75;2.00;;;;;;;26.18;46.86;99234.14;1759452;79;21427;-70
2022/07/26 08:07:42;;;;;;;2.75;2.35;;;;;;;26.22;46.81;99232.77;1750983;80;21400;-68
2022/07/26 08:10:09;;;;;;;4.40;2.80;;;;;;;26.32;46.61;99237.94;1750350;80;21554;-67
2022/07/26 08:12:36;;;;;;;7.03;2.87;;;;;;;26.31;46.44;99236.23;1756053;80;21802;-68
2022/07/26 08:15:04;;;;;;;4.57;2.73;;;;;;;26.21;46.59;99237.81;1729138;79;21517;-70
2022/07/26 08:17:31;;;;;;;2.67;2.40;;;;;;;26.19;46.58;99237.67;1757987;80;21523;-68
2022/07/26 08:19:58;;;;;;;4.20;2.20;;;;;;;26.20;46.91;99231.25;1762178;80;21423;-69
2022/07/26 08:22:24;;;;;;;2.75;2.35;;;;;;;26.35;46.88;99236.24;1756499;79;21602;-70
2022/07/26 08:24:51;;;;;;;3.52;2.27;;;;;;;26.43;46.22;99232.66;1757835;80;21517;-67
2022/07/26 08:27:18;;;;;;;2.47;2.23;;;;;;;26.46;45.82;99224.71;1721959;82;21522;-69
2022/07/26 08:29:45;;;;;;;6.15;2.67;;;;;;;26.58;46.21;99228.69;1750362;80;21568;-69
2022/07/26 08:32:11;;;;;;;3.77;2.57;;;;;;;26.76;46.02;99228.41;1755093;80;21427;-70
2022/07/26 08:34:39;;;;;;;4.37;2.90;;;;;;;26.55;46.52;99227.69;1761962;80;21052;-68
2022/07/26 08:37:06;;;;;;;3.02;2.15;;;;;;;26.78;45.94;99224.50;1743594;80;21812;-71
2022/07/26 08:39:34;;;;;;;2.98;2.62;;;;;;;26.86;45.22;99220.06;1751361;80;21540;-73
2022/07/26 08:42:08;;;;;;;6.08;1.98;;;;;;;26.82;45.23;99222.28;1752335;80;28491;-72
2022/07/26 08:44:35;;;;;;;2.72;2.22;;;;;;;26.75;45.41;99226.75;1750086;79;21551;-73
2022/07/26 08:47:02;;;;;;;8.37;2.80;;;;;;;26.66;45.31;99225.95;1748210;80;21555;-73
2022/07/26 08:49:30;;;;;;;3.50;2.58;;;;;;;26.64;44.93;99226.64;1728509;80;21641;-72
2022/07/26 08:51:58;;;;;;;2.55;2.27;;;;;;;26.63;45.28;99221.42;1748907;80;21576;-73
2022/07/26 08:54:26;;;;;;;2.60;1.82;;;;;;;26.62;45.21;99225.99;1740324;80;21563;-71
2022/07/26 08:56:57;;;;;;;3.27;2.30;;;;;;;26.66;45.36;99226.47;1754627;79;21483;-71
2022/07/26 08:59:24;;;;;;;4.53;2.47;;;;;;;26.67;45.02;99223.57;1754236;80;21481;-69
2022/07/26 09:02:00;;;;;;;2.92;1.87;;;;;;;26.72;45.15;99229.27;1753504;80;21961;-68
2022/07/26 09:04:29;;;;;;;4.50;1.80;;;;;;;26.66;45.13;99225.13;1757207;80;21801;-67
2022/07/26 09:07:11;;;;;;;3.72;1.92;;;;;;;26.58;45.62;99217.91;1757845;80;21436;-67
2022/07/26 09:09:57;;;;;;;4.60;2.20;;;;;;;26.49;45.93;99221.67;1713424;81;22084;-67
2022/07/26 09:12:25;;;;;;;3.40;2.20;;;;;;;26.51;46.05;99222.33;1754672;80;21581;-67
2022/07/26 09:14:52;;;;;;;3.47;2.30;;;;;;;26.36;45.99;99211.47;1755871;79;21522;-67
2022/07/26 09:17:21;;;;;;;2.55;2.22;;;;;;;26.94;45.51;99209.23;1758488;80;21592;-66
2022/07/26 09:20:12;;;;;;;2.00;1.90;;;;;;;27.25;44.57;99210.47;1743436;80;21459;-68
2022/07/26 09:22:59;;;;;;;3.95;2.20;;;;;;;27.50;43.52;99204.31;1750930;80;21418;-67
2022/07/26 09:25:27;;;;;;;2.50;2.30;;;;;;;27.70;43.69;99198.34;1750867;80;21515;-68
2022/07/26 09:27:53;;;;;;;;;;;;;;;27.83;43.22;99194.47;1755615;80;21834;-68
2022/07/26 09:30:21;;;;;;;3.60;2.08;;;;;;;27.81;42.26;99193.82;1755826;80;20242;-68
2022/07/26 09:33:05;;;;;;;1.67;1.57;;;;;;;27.71;43.47;99190.06;1751122;80;21566;-67
2022/07/26 09:35:38;;;;;;;3.52;2.33;;;;;;;27.80;42.41;99190.78;1754608;80;20994;-67
2022/07/26 09:38:16;;;;;;;2.40;2.12;;;;;;;27.98;42.08;99180.97;1748363;80;21489;-69
2022/07/26 09:40:43;;;;;;;3.15;2.08;;;;;;;28.15;41.53;99178.87;1742105;80;21794;-72
2022/07/26 09:43:10;;;;;;;2.33;2.13;;;;;;;28.34;41.15;99175.55;1744325;80;21474;-70
2022/07/26 09:45:36;;;;;;;6.28;2.10;;;;;;;28.34;41.15;99175.55;1750495;80;21482;-70
2022/07/26 09:48:03;;;;;;;4.57;1.70;;;;;;;28.50;40.79;99173.13;1756733;80;20998;-70
2022/07/26 09:50:31;;;;;;;2.58;1.80;;;;;;;28.56;40.54;99169.33;1754120;80;21597;-70
2022/07/26 09:53:11;;;;;;;2.92;1.98;;;;;;;28.43;40.51;99174.91;1752311;80;21720;-70
2022/07/26 09:55:49;;;;;;;5.20;2.15;;;;;;;28.32;40.39;99168.14;1750362;80;21080;-72
2022/07/26 09:58:17;;;;;;;2.25;2.05;;;;;;;28.26;40.76;99172.98;1748948;80;21547;-70
2022/07/26 10:00:45;;;;;;;2.87;1.92;;;;;;;28.30;40.28;99168.85;1761884;80;21053;-73
2022/07/26 10:03:12;;;;;;;3.37;1.85;;;;;;;28.35;39.44;99166.95;1747494;80;21408;-72
2022/07/26 10:05:40;;;;;;;1.87;1.77;;;;;;;28.32;39.49;99174.91;1744660;80;21815;-71
2022/07/26 10:08:07;;;;;;;1.82;1.42;;;;;;;28.34;39.43;99170.66;1746922;80;21457;-70
2022/07/26 10:11:03;;;;;;;1.55;1.45;;;;;;;28.40;38.60;99173.11;1747169;80;21510;-69
2022/07/26 10:13:31;;;;;;;3.42;1.65;;;;;;;28.46;37.95;99165.57;1754738;80;21085;-69
2022/07/26 10:16:00;;;;;;;5.08;2.00;;;;;;;28.54;37.84;99165.49;1754814;80;21415;-69
2022/07/26 10:18:42;;;;;;;2.33;1.77;;;;;;;28.61;38.24;99170.42;1750764;80;21736;-68
2022/07/26 10:21:28;;;;;;;2.98;1.82;;;;;;;28.80;38.01;99162.69;1749487;80;21571;-69
2022/07/26 10:23:59;;;;;;;1.67;1.50;;;;;;;28.96;38.40;99160.23;1755130;80;21493;-68
2022/07/26 10:26:35;;;;;;;1.60;1.50;;;;;;;29.10;37.60;99165.55;1754930;80;21554;-70
2022/07/26 10:29:22;;;;;;;1.35;1.20;;;;;;;29.20;37.13;99158.98;1746345;80;20992;-68
2022/07/26 10:32:14;;;;;;;1.72;1.40;;;;;;;29.35;37.07;99151.57;1748061;80;21819;-69
2022/07/26 10:34:40;;;;;;;2.85;1.40;;;;;;;29.57;35.62;99150.94;1752388;80;21379;-69
2022/07/26 10:37:10;;;;;;;1.60;1.40;;;;;;;29.55;35.60;99152.19;1748482;80;21467;-69
2022/07/26 10:39:37;;;;;;;1.55;1.40;;;;;;;29.75;35.20;99145.02;1745388;80;21572;-68
2022/07/26 10:42:06;;;;;;;1.50;1.40;;;;;;;29.83;35.39;99149.42;1755563;80;21508;-68
2022/07/26 10:44:36;;;;;;;2.65;1.65;;;;;;;29.81;35.90;99145.56;1759992;80;21528;-70
2022/07/26 10:47:10;;;;;;;1.62;1.50;;;;;;;29.76;36.10;99150.77;1756720;80;21495;-69
2022/07/26 10:49:57;;;;;;;5.05;2.17;;;;;;;29.63;35.99;99149.30;1757418;80;21456;-69
2022/07/26 10:52:30;;;;;;;4.40;1.65;;;;;;;29.46;36.44;99157.78;1742872;80;21630;-70
2022/07/26 10:55:03;;;;;;;1.57;1.47;;;;;;;29.35;36.54;99159.70;1743920;80;21437;-71
2022/07/26 10:57:40;;;;;;;3.45;1.52;;;;;;;29.19;36.52;99158.12;1711343;81;21944;-70
2022/07/26 11:00:11;;;;;;;4.85;1.90;;;;;;;29.11;36.38;99159.08;1750574;80;21544;-69
2022/07/26 11:02:39;;;;;;;1.25;1.15;;;;;;;29.15;36.70;99155.50;1747535;80;21502;-71
2022/07/26 11:05:14;;;;;;;1.42;1.32;;;;;;;29.28;35.45;99142.57;1749439;80;21443;-71
2022/07/26 11:07:54;;;;;;;1.22;1.12;;;;;;;29.42;35.23;99141.63;1733156;80;21533;-70
2022/07/26 11:10:29;;;;;;;3.33;1.37;;;;;;;29.50;34.42;99127.91;1753069;80;21548;-67
2022/07/26 11:13:21;;;;;;;4.80;1.60;;;;;;;29.54;34.01;99127.52;1749198;80;21463;-69
2022/07/26 11:15:59;;;;;;;3.45;1.85;;;;;;;29.60;34.66;99126.70;1743958;80;21415;-70
2022/07/26 11:18:33;;;;;;;6.45;1.57;;;;;;;29.71;35.39;99134.25;1737940;80;21035;-69
2022/07/26 11:21:15;;;;;;;1.90;1.62;;;;;;;29.84;34.73;99134.86;1745937;80;21444;-69
2022/07/26 11:23:44;;;;;;;2.75;2.00;;;;;;;29.80;34.62;99137.63;1753294;80;22227;-69
2022/07/26 11:26:17;;;;;;;3.40;2.05;;;;;;;29.71;34.96;99141.02;1744288;80;21524;-70
2022/07/26 11:28:58;;;;;;;2.75;2.08;;;;;;;29.58;34.98;99138.25;1754732;80;21604;-70
2022/07/26 11:31:35;;;;;;;2.00;1.90;;;;;;;29.40;35.92;99142.84;1746189;80;21542;-72
2022/07/26 11:34:02;;;;;;;;;;;;;;;29.26;36.00;99137.34;1746768;80;21426;-72
2022/07/26 11:36:39;;;;;;;3.98;2.52;;;;;;;29.12;36.15;99136.41;1751167;80;21826;-71
2022/07/26 11:39:14;;;;;;;4.30;2.30;;;;;;;29.12;35.90;99133.70;1757278;80;21411;-70
2022/07/26 11:41:42;;;;;;;5.47;2.50;;;;;;;29.15;35.46;99127.61;1766100;79;21765;-70
2022/07/26 11:44:20;;;;;;;;;;;;;;;29.26;35.62;99129.75;1761589;79;20942;-70
2022/07/26 11:46:47;;;;;;;3.08;2.20;;;;;;;29.39;35.96;99127.13;1746832;80;20148;-71
2022/07/26 11:49:24;;;;;;;3.70;2.22;;;;;;;29.46;35.58;99126.64;1756021;79;21494;-72